Estiva, Brazil
Current Conditions -  °F | °C
As of 5:00 PM on Friday 24 Oct 2014 (Local Time) from SBSJ Reporting Station
Scattered Clouds Scattered Clouds  
Wind Chill: 90°   Ceiling: Unl
Heat Index: 90°   Visibility: 6mi
Dew Point: 59°   Wind: 17mph
Humidity: 36%   Direction: 130°SE
Pressure: 29.91"   Gusts: NA
Location:  22.46°S, 46.02°W
Report Text: SBSJ 241900Z 13015KT 9999 SCT040 32/15 Q1013
Loading
Personal Weather Stations






























Interactive Weather Map
Tropical Storm Tracking
New forecast layout! Learn more

10-Day Weather Forecast

Advertisements
Track Severe Weather on mobile